sensor_id;sensor_type;location;lat;lon;timestamp;temperature;humidity
46676;DHT22;32412;51.478;5.694;2023-04-24T00:01:37;9.80;99.90
46676;DHT22;32412;51.478;5.694;2023-04-24T00:04:19;9.70;99.90
46676;DHT22;32412;51.478;5.694;2023-04-24T00:07:41;9.70;99.90
46676;DHT22;32412;51.478;5.694;2023-04-24T00:10:11;9.70;99.90
46676;DHT22;32412;51.478;5.694;2023-04-24T00:12:41;9.70;99.90
46676;DHT22;32412;51.478;5.694;2023-04-24T00:15:10;9.70;99.90
46676;DHT22;32412;51.478;5.694;2023-04-24T00:17:44;9.70;99.90
46676;DHT22;32412;51.478;5.694;2023-04-24T00:20:10;9.60;99.90
46676;DHT22;32412;51.478;5.694;2023-04-24T00:22:36;9.70;99.90
46676;DHT22;32412;51.478;5.694;2023-04-24T00:25:02;9.70;99.90
46676;DHT22;32412;51.478;5.694;2023-04-24T00:27:29;9.60;99.90
46676;DHT22;32412;51.478;5.694;2023-04-24T00:29:57;9.60;99.90
46676;DHT22;32412;51.478;5.694;2023-04-24T00:32:31;9.60;99.90
46676;DHT22;32412;51.478;5.694;2023-04-24T00:35:08;9.60;99.90
46676;DHT22;32412;51.478;5.694;2023-04-24T00:37:40;9.60;99.90
46676;DHT22;32412;51.478;5.694;2023-04-24T00:40:06;9.60;99.90
46676;DHT22;32412;51.478;5.694;2023-04-24T00:42:37;9.60;99.90
46676;DHT22;32412;51.478;5.694;2023-04-24T00:45:04;9.60;99.90
46676;DHT22;32412;51.478;5.694;2023-04-24T00:47:42;9.60;99.90
46676;DHT22;32412;51.478;5.694;2023-04-24T00:50:17;9.60;99.90
46676;DHT22;32412;51.478;5.694;2023-04-24T00:52:46;9.50;99.90
46676;DHT22;32412;51.478;5.694;2023-04-24T00:55:12;9.50;99.90
46676;DHT22;32412;51.478;5.694;2023-04-24T00:57:44;9.50;99.90
46676;DHT22;32412;51.478;5.694;2023-04-24T01:00:11;9.50;99.90
46676;DHT22;32412;51.478;5.694;2023-04-24T01:02:41;9.50;99.90
46676;DHT22;32412;51.478;5.694;2023-04-24T01:05:15;9.50;99.90
46676;DHT22;32412;51.478;5.694;2023-04-24T01:07:45;9.40;99.90
46676;DHT22;32412;51.478;5.694;2023-04-24T01:10:15;9.40;99.90
46676;DHT22;32412;51.478;5.694;2023-04-24T01:12:46;9.30;99.90
46676;DHT22;32412;51.478;5.694;2023-04-24T01:15:12;9.20;99.90
46676;DHT22;32412;51.478;5.694;2023-04-24T01:17:38;9.20;99.90
46676;DHT22;32412;51.478;5.694;2023-04-24T01:20:04;9.30;99.90
46676;DHT22;32412;51.478;5.694;2023-04-24T01:22:32;9.30;99.90
46676;DHT22;32412;51.478;5.694;2023-04-24T01:24:58;9.30;99.90
46676;DHT22;32412;51.478;5.694;2023-04-24T01:27:24;9.20;99.90
46676;DHT22;32412;51.478;5.694;2023-04-24T01:29:53;9.30;99.90
46676;DHT22;32412;51.478;5.694;2023-04-24T01:32:19;9.20;99.90
46676;DHT22;32412;51.478;5.694;2023-04-24T01:34:45;9.20;99.90
46676;DHT22;32412;51.478;5.694;2023-04-24T01:37:12;9.20;99.90
46676;DHT22;32412;51.478;5.694;2023-04-24T01:39:37;9.20;99.90
46676;DHT22;32412;51.478;5.694;2023-04-24T01:42:04;9.10;99.90
46676;DHT22;32412;51.478;5.694;2023-04-24T01:44:33;9.20;99.90
46676;DHT22;32412;51.478;5.694;2023-04-24T01:47:01;9.20;99.90
46676;DHT22;32412;51.478;5.694;2023-04-24T01:49:30;9.20;99.90
46676;DHT22;32412;51.478;5.694;2023-04-24T01:51:56;9.10;99.90
46676;DHT22;32412;51.478;5.694;2023-04-24T01:54:23;9.20;99.90
46676;DHT22;32412;51.478;5.694;2023-04-24T01:56:52;9.20;99.90
46676;DHT22;32412;51.478;5.694;2023-04-24T01:59:19;9.20;99.90
46676;DHT22;32412;51.478;5.694;2023-04-24T02:01:48;9.20;99.90
46676;DHT22;32412;51.478;5.694;2023-04-24T02:04:14;9.20;99.90
46676;DHT22;32412;51.478;5.694;2023-04-24T02:06:45;9.30;99.90
46676;DHT22;32412;51.478;5.694;2023-04-24T02:09:11;9.20;99.90
46676;DHT22;32412;51.478;5.694;2023-04-24T02:11:39;9.20;99.90
46676;DHT22;32412;51.478;5.694;2023-04-24T02:14:05;9.20;99.90
46676;DHT22;32412;51.478;5.694;2023-04-24T02:16:31;9.20;99.90
46676;DHT22;32412;51.478;5.694;2023-04-24T02:19:04;9.20;99.90
46676;DHT22;32412;51.478;5.694;2023-04-24T02:21:32;9.20;99.90
46676;DHT22;32412;51.478;5.694;2023-04-24T02:24:00;9.20;99.90
46676;DHT22;32412;51.478;5.694;2023-04-24T02:26:29;9.20;99.90
46676;DHT22;32412;51.478;5.694;2023-04-24T02:28:57;9.20;99.90
46676;DHT22;32412;51.478;5.694;2023-04-24T02:31:22;9.10;99.90
46676;DHT22;32412;51.478;5.694;2023-04-24T02:33:48;9.20;99.90
46676;DHT22;32412;51.478;5.694;2023-04-24T02:36:14;9.20;99.90
46676;DHT22;32412;51.478;5.694;2023-04-24T02:38:40;9.20;99.90
46676;DHT22;32412;51.478;5.694;2023-04-24T02:41:05;9.20;99.90
46676;DHT22;32412;51.478;5.694;2023-04-24T02:43:32;9.30;99.90
46676;DHT22;32412;51.478;5.694;2023-04-24T02:45:58;9.20;99.90
46676;DHT22;32412;51.478;5.694;2023-04-24T02:48:27;9.30;99.90
46676;DHT22;32412;51.478;5.694;2023-04-24T02:50:53;9.30;99.90
46676;DHT22;32412;51.478;5.694;2023-04-24T02:53:18;9.20;99.90
46676;DHT22;32412;51.478;5.694;2023-04-24T02:55:44;9.30;99.90
46676;DHT22;32412;51.478;5.694;2023-04-24T02:58:11;9.30;99.90
46676;DHT22;32412;51.478;5.694;2023-04-24T03:00:38;9.30;99.90
46676;DHT22;32412;51.478;5.694;2023-04-24T03:03:04;9.30;99.90
46676;DHT22;32412;51.478;5.694;2023-04-24T03:05:31;9.30;99.90
46676;DHT22;32412;51.478;5.694;2023-04-24T03:07:56;9.30;99.90
46676;DHT22;32412;51.478;5.694;2023-04-24T03:10:22;9.30;99.90
46676;DHT22;32412;51.478;5.694;2023-04-24T03:12:48;9.30;99.90
46676;DHT22;32412;51.478;5.694;2023-04-24T03:15:14;9.30;99.90
46676;DHT22;32412;51.478;5.694;2023-04-24T03:17:40;9.30;99.90
46676;DHT22;32412;51.478;5.694;2023-04-24T03:20:06;9.30;99.90
46676;DHT22;32412;51.478;5.694;2023-04-24T03:22:33;9.30;99.90
46676;DHT22;32412;51.478;5.694;2023-04-24T03:25:06;9.30;99.90
46676;DHT22;32412;51.478;5.694;2023-04-24T03:27:43;9.30;99.90
46676;DHT22;32412;51.478;5.694;2023-04-24T03:30:10;9.30;99.90
46676;DHT22;32412;51.478;5.694;2023-04-24T03:32:36;9.30;99.90
46676;DHT22;32412;51.478;5.694;2023-04-24T03:35:17;9.30;99.90
46676;DHT22;32412;51.478;5.694;2023-04-24T03:37:48;9.30;99.90
46676;DHT22;32412;51.478;5.694;2023-04-24T03:40:24;9.20;99.90
46676;DHT22;32412;51.478;5.694;2023-04-24T03:43:01;9.20;99.90
46676;DHT22;32412;51.478;5.694;2023-04-24T03:45:30;9.20;99.90
46676;DHT22;32412;51.478;5.694;2023-04-24T03:47:56;9.10;99.90
46676;DHT22;32412;51.478;5.694;2023-04-24T03:50:24;9.10;99.90
46676;DHT22;32412;51.478;5.694;2023-04-24T03:52:57;9.20;99.90
46676;DHT22;32412;51.478;5.694;2023-04-24T03:55:24;9.20;99.90
46676;DHT22;32412;51.478;5.694;2023-04-24T03:57:52;9.20;99.90
46676;DHT22;32412;51.478;5.694;2023-04-24T04:00:18;9.20;99.90
46676;DHT22;32412;51.478;5.694;2023-04-24T04:02:47;9.20;99.90
46676;DHT22;32412;51.478;5.694;2023-04-24T04:08:35;9.20;99.90
46676;DHT22;32412;51.478;5.694;2023-04-24T04:11:03;9.20;99.90
46676;DHT22;32412;51.478;5.694;2023-04-24T04:13:29;9.20;99.90
46676;DHT22;32412;51.478;5.694;2023-04-24T04:15:55;9.20;99.90
46676;DHT22;32412;51.478;5.694;2023-04-24T04:18:21;9.20;99.90
46676;DHT22;32412;51.478;5.694;2023-04-24T04:20:47;9.10;99.90
46676;DHT22;32412;51.478;5.694;2023-04-24T04:23:12;9.00;99.90
46676;DHT22;32412;51.478;5.694;2023-04-24T04:25:38;9.00;99.90
46676;DHT22;32412;51.478;5.694;2023-04-24T04:28:06;8.90;99.90
46676;DHT22;32412;51.478;5.694;2023-04-24T04:30:32;8.80;99.90
46676;DHT22;32412;51.478;5.694;2023-04-24T04:33:01;8.80;99.90
46676;DHT22;32412;51.478;5.694;2023-04-24T04:35:30;8.70;99.90
46676;DHT22;32412;51.478;5.694;2023-04-24T04:37:55;8.80;99.90
46676;DHT22;32412;51.478;5.694;2023-04-24T04:40:24;8.70;99.90
46676;DHT22;32412;51.478;5.694;2023-04-24T04:42:53;8.70;99.90
46676;DHT22;32412;51.478;5.694;2023-04-24T04:45:19;8.70;99.90
46676;DHT22;32412;51.478;5.694;2023-04-24T04:47:49;8.70;99.90
46676;DHT22;32412;51.478;5.694;2023-04-24T04:50:21;8.70;99.90
46676;DHT22;32412;51.478;5.694;2023-04-24T04:52:49;8.70;99.90
46676;DHT22;32412;51.478;5.694;2023-04-24T04:55:14;8.70;99.90
46676;DHT22;32412;51.478;5.694;2023-04-24T04:57:40;8.70;99.90
46676;DHT22;32412;51.478;5.694;2023-04-24T05:00:07;8.60;99.90
46676;DHT22;32412;51.478;5.694;2023-04-24T05:02:35;8.60;99.90
46676;DHT22;32412;51.478;5.694;2023-04-24T05:05:04;8.60;99.90
46676;DHT22;32412;51.478;5.694;2023-04-24T05:07:31;8.50;99.90
46676;DHT22;32412;51.478;5.694;2023-04-24T05:09:57;8.60;99.90
46676;DHT22;32412;51.478;5.694;2023-04-24T05:12:23;8.60;99.90
46676;DHT22;32412;51.478;5.694;2023-04-24T05:14:49;8.50;99.90
46676;DHT22;32412;51.478;5.694;2023-04-24T05:17:17;8.50;99.90
46676;DHT22;32412;51.478;5.694;2023-04-24T05:19:49;8.50;99.90
46676;DHT22;32412;51.478;5.694;2023-04-24T05:22:15;8.50;99.90
46676;DHT22;32412;51.478;5.694;2023-04-24T05:24:40;8.50;99.90
46676;DHT22;32412;51.478;5.694;2023-04-24T05:27:06;8.50;99.90
46676;DHT22;32412;51.478;5.694;2023-04-24T05:29:32;8.50;99.90
46676;DHT22;32412;51.478;5.694;2023-04-24T05:31:59;8.60;99.90
46676;DHT22;32412;51.478;5.694;2023-04-24T05:34:25;8.60;99.90
46676;DHT22;32412;51.478;5.694;2023-04-24T05:36:54;8.70;99.90
46676;DHT22;32412;51.478;5.694;2023-04-24T05:39:20;8.70;99.90
46676;DHT22;32412;51.478;5.694;2023-04-24T05:41:46;8.70;99.90
46676;DHT22;32412;51.478;5.694;2023-04-24T05:44:11;8.70;99.90
46676;DHT22;32412;51.478;5.694;2023-04-24T05:46:37;8.70;99.90
46676;DHT22;32412;51.478;5.694;2023-04-24T05:49:03;8.60;99.90
46676;DHT22;32412;51.478;5.694;2023-04-24T05:51:29;8.60;99.90
46676;DHT22;32412;51.478;5.694;2023-04-24T05:53:55;8.60;99.90
46676;DHT22;32412;51.478;5.694;2023-04-24T05:56:22;8.60;99.90
46676;DHT22;32412;51.478;5.694;2023-04-24T05:58:48;8.50;99.90
46676;DHT22;32412;51.478;5.694;2023-04-24T06:01:14;8.60;99.90
46676;DHT22;32412;51.478;5.694;2023-04-24T06:03:41;8.60;99.90
46676;DHT22;32412;51.478;5.694;2023-04-24T06:06:07;8.50;99.90
46676;DHT22;32412;51.478;5.694;2023-04-24T06:08:34;8.50;99.90
46676;DHT22;32412;51.478;5.694;2023-04-24T06:11:00;8.40;99.90
46676;DHT22;32412;51.478;5.694;2023-04-24T06:13:26;8.30;99.90
46676;DHT22;32412;51.478;5.694;2023-04-24T06:15:52;8.30;99.90
46676;DHT22;32412;51.478;5.694;2023-04-24T06:18:18;8.30;99.90
46676;DHT22;32412;51.478;5.694;2023-04-24T06:20:45;8.30;99.90
46676;DHT22;32412;51.478;5.694;2023-04-24T06:23:11;8.20;99.90
46676;DHT22;32412;51.478;5.694;2023-04-24T06:25:37;8.30;99.90
46676;DHT22;32412;51.478;5.694;2023-04-24T06:28:03;8.30;99.90
46676;DHT22;32412;51.478;5.694;2023-04-24T06:30:28;8.30;99.90
46676;DHT22;32412;51.478;5.694;2023-04-24T06:32:54;8.30;99.90
46676;DHT22;32412;51.478;5.694;2023-04-24T06:35:20;8.30;99.90
46676;DHT22;32412;51.478;5.694;2023-04-24T06:37:46;8.30;99.90
46676;DHT22;32412;51.478;5.694;2023-04-24T06:40:12;8.30;99.90
46676;DHT22;32412;51.478;5.694;2023-04-24T06:42:41;8.30;99.90
46676;DHT22;32412;51.478;5.694;2023-04-24T06:45:09;8.40;99.90
46676;DHT22;32412;51.478;5.694;2023-04-24T06:47:38;8.40;99.90
46676;DHT22;32412;51.478;5.694;2023-04-24T06:50:05;8.40;99.90
46676;DHT22;32412;51.478;5.694;2023-04-24T06:52:30;8.50;99.90
46676;DHT22;32412;51.478;5.694;2023-04-24T06:55:03;8.50;99.90
46676;DHT22;32412;51.478;5.694;2023-04-24T06:57:29;8.50;99.90
46676;DHT22;32412;51.478;5.694;2023-04-24T06:59:58;8.50;99.90
46676;DHT22;32412;51.478;5.694;2023-04-24T07:02:24;8.50;99.90
46676;DHT22;32412;51.478;5.694;2023-04-24T07:04:50;8.50;99.90
46676;DHT22;32412;51.478;5.694;2023-04-24T07:07:16;8.60;99.90
46676;DHT22;32412;51.478;5.694;2023-04-24T07:09:42;8.60;99.90
46676;DHT22;32412;51.478;5.694;2023-04-24T07:12:08;8.60;99.90
46676;DHT22;32412;51.478;5.694;2023-04-24T07:14:39;8.60;99.90
46676;DHT22;32412;51.478;5.694;2023-04-24T07:17:10;8.60;99.90
46676;DHT22;32412;51.478;5.694;2023-04-24T07:19:38;8.50;99.90
46676;DHT22;32412;51.478;5.694;2023-04-24T07:22:04;8.60;99.90
46676;DHT22;32412;51.478;5.694;2023-04-24T07:24:30;8.50;99.90
46676;DHT22;32412;51.478;5.694;2023-04-24T07:26:57;8.50;99.90
46676;DHT22;32412;51.478;5.694;2023-04-24T07:29:23;8.50;99.90
46676;DHT22;32412;51.478;5.694;2023-04-24T07:31:50;8.50;99.90
46676;DHT22;32412;51.478;5.694;2023-04-24T07:34:16;8.50;99.90
46676;DHT22;32412;51.478;5.694;2023-04-24T07:36:44;8.50;99.90
46676;DHT22;32412;51.478;5.694;2023-04-24T07:39:11;8.40;99.90
46676;DHT22;32412;51.478;5.694;2023-04-24T07:41:36;8.40;99.90
46676;DHT22;32412;51.478;5.694;2023-04-24T07:44:02;8.30;99.90
46676;DHT22;32412;51.478;5.694;2023-04-24T07:46:29;8.30;99.90
46676;DHT22;32412;51.478;5.694;2023-04-24T07:48:56;8.30;99.90
46676;DHT22;32412;51.478;5.694;2023-04-24T07:51:21;8.30;99.90
46676;DHT22;32412;51.478;5.694;2023-04-24T07:53:47;8.30;99.90
46676;DHT22;32412;51.478;5.694;2023-04-24T07:56:13;8.30;99.90
46676;DHT22;32412;51.478;5.694;2023-04-24T07:58:39;8.30;99.90
46676;DHT22;32412;51.478;5.694;2023-04-24T08:01:05;8.30;99.90
46676;DHT22;32412;51.478;5.694;2023-04-24T08:03:31;8.30;99.90
46676;DHT22;32412;51.478;5.694;2023-04-24T08:05:56;8.30;99.90
46676;DHT22;32412;51.478;5.694;2023-04-24T08:08:22;8.30;99.90
46676;DHT22;32412;51.478;5.694;2023-04-24T08:10:50;8.20;99.90
46676;DHT22;32412;51.478;5.694;2023-04-24T08:13:19;8.30;99.90
46676;DHT22;32412;51.478;5.694;2023-04-24T08:15:47;8.20;99.90
46676;DHT22;32412;51.478;5.694;2023-04-24T08:18:13;8.20;99.90
46676;DHT22;32412;51.478;5.694;2023-04-24T08:20:41;8.30;99.90
46676;DHT22;32412;51.478;5.694;2023-04-24T08:23:12;8.30;99.90
46676;DHT22;32412;51.478;5.694;2023-04-24T08:25:38;8.20;99.90
46676;DHT22;32412;51.478;5.694;2023-04-24T08:28:06;8.40;99.90
46676;DHT22;32412;51.478;5.694;2023-04-24T08:30:34;8.40;99.90
46676;DHT22;32412;51.478;5.694;2023-04-24T08:33:00;8.40;99.90
46676;DHT22;32412;51.478;5.694;2023-04-24T08:35:25;8.50;99.90
46676;DHT22;32412;51.478;5.694;2023-04-24T08:37:52;8.50;99.90
46676;DHT22;32412;51.478;5.694;2023-04-24T08:40:23;8.50;99.90
46676;DHT22;32412;51.478;5.694;2023-04-24T08:42:54;8.50;99.90
46676;DHT22;32412;51.478;5.694;2023-04-24T08:45:20;8.50;99.90
46676;DHT22;32412;51.478;5.694;2023-04-24T08:47:47;8.60;99.90
46676;DHT22;32412;51.478;5.694;2023-04-24T08:50:17;8.50;99.90
46676;DHT22;32412;51.478;5.694;2023-04-24T08:52:43;8.50;99.90
46676;DHT22;32412;51.478;5.694;2023-04-24T08:55:09;8.60;99.90
46676;DHT22;32412;51.478;5.694;2023-04-24T08:57:36;8.60;99.90
46676;DHT22;32412;51.478;5.694;2023-04-24T09:00:04;8.50;99.90
46676;DHT22;32412;51.478;5.694;2023-04-24T09:02:31;8.60;99.90
46676;DHT22;32412;51.478;5.694;2023-04-24T09:05:00;8.70;99.90
46676;DHT22;32412;51.478;5.694;2023-04-24T09:07:27;8.70;99.90
46676;DHT22;32412;51.478;5.694;2023-04-24T09:09:53;8.80;99.90
46676;DHT22;32412;51.478;5.694;2023-04-24T09:12:19;8.80;99.90
46676;DHT22;32412;51.478;5.694;2023-04-24T09:14:46;8.90;99.90
46676;DHT22;32412;51.478;5.694;2023-04-24T09:17:13;9.00;99.90
46676;DHT22;32412;51.478;5.694;2023-04-24T09:19:44;9.10;99.90
46676;DHT22;32412;51.478;5.694;2023-04-24T09:22:10;9.30;99.90
46676;DHT22;32412;51.478;5.694;2023-04-24T09:24:39;9.30;99.90
46676;DHT22;32412;51.478;5.694;2023-04-24T09:27:05;9.20;99.90
46676;DHT22;32412;51.478;5.694;2023-04-24T09:29:32;9.10;99.90
46676;DHT22;32412;51.478;5.694;2023-04-24T09:31:58;9.00;99.90
46676;DHT22;32412;51.478;5.694;2023-04-24T09:34:27;8.90;99.90
46676;DHT22;32412;51.478;5.694;2023-04-24T09:36:55;8.90;99.90
46676;DHT22;32412;51.478;5.694;2023-04-24T09:39:21;8.80;99.90
46676;DHT22;32412;51.478;5.694;2023-04-24T09:41:52;8.80;99.90
46676;DHT22;32412;51.478;5.694;2023-04-24T09:44:22;9.00;99.90
46676;DHT22;32412;51.478;5.694;2023-04-24T09:49:24;9.40;99.90
46676;DHT22;32412;51.478;5.694;2023-04-24T09:51:50;9.60;99.90
46676;DHT22;32412;51.478;5.694;2023-04-24T09:54:21;9.90;99.90
46676;DHT22;32412;51.478;5.694;2023-04-24T09:56:48;9.80;99.90
46676;DHT22;32412;51.478;5.694;2023-04-24T09:59:16;9.60;99.90
46676;DHT22;32412;51.478;5.694;2023-04-24T10:01:42;9.40;99.90
46676;DHT22;32412;51.478;5.694;2023-04-24T10:04:36;9.30;99.90
46676;DHT22;32412;51.478;5.694;2023-04-24T10:07:03;9.10;99.90
46676;DHT22;32412;51.478;5.694;2023-04-24T10:09:34;9.10;99.90
46676;DHT22;32412;51.478;5.694;2023-04-24T10:12:00;9.10;99.90
46676;DHT22;32412;51.478;5.694;2023-04-24T10:14:27;9.20;99.90
46676;DHT22;32412;51.478;5.694;2023-04-24T10:16:54;9.50;99.90
46676;DHT22;32412;51.478;5.694;2023-04-24T10:19:24;9.80;99.90
46676;DHT22;32412;51.478;5.694;2023-04-24T10:21:50;10.00;99.90
46676;DHT22;32412;51.478;5.694;2023-04-24T10:24:18;10.20;99.90
46676;DHT22;32412;51.478;5.694;2023-04-24T10:26:46;10.40;99.90
46676;DHT22;32412;51.478;5.694;2023-04-24T10:29:15;10.80;99.90
46676;DHT22;32412;51.478;5.694;2023-04-24T10:31:43;10.80;99.90
46676;DHT22;32412;51.478;5.694;2023-04-24T10:34:24;11.00;99.90
46676;DHT22;32412;51.478;5.694;2023-04-24T10:36:54;11.10;99.90
46676;DHT22;32412;51.478;5.694;2023-04-24T10:39:21;10.90;99.90
46676;DHT22;32412;51.478;5.694;2023-04-24T10:41:48;10.70;99.90
46676;DHT22;32412;51.478;5.694;2023-04-24T10:44:15;10.70;99.90
46676;DHT22;32412;51.478;5.694;2023-04-24T10:46:55;10.40;99.90
46676;DHT22;32412;51.478;5.694;2023-04-24T10:49:31;10.20;99.90
46676;DHT22;32412;51.478;5.694;2023-04-24T10:52:04;10.10;99.90
46676;DHT22;32412;51.478;5.694;2023-04-24T10:54:38;9.90;99.90
46676;DHT22;32412;51.478;5.694;2023-04-24T10:59:46;9.80;99.90
46676;DHT22;32412;51.478;5.694;2023-04-24T11:02:14;9.90;99.90
46676;DHT22;32412;51.478;5.694;2023-04-24T11:04:41;10.00;99.90
46676;DHT22;32412;51.478;5.694;2023-04-24T11:07:10;10.30;99.90
46676;DHT22;32412;51.478;5.694;2023-04-24T11:09:36;10.60;99.90
46676;DHT22;32412;51.478;5.694;2023-04-24T11:12:07;10.70;99.90
46676;DHT22;32412;51.478;5.694;2023-04-24T11:17:38;10.60;99.90
46676;DHT22;32412;51.478;5.694;2023-04-24T11:20:16;10.60;99.90
46676;DHT22;32412;51.478;5.694;2023-04-24T11:22:41;10.80;99.90
46676;DHT22;32412;51.478;5.694;2023-04-24T11:25:10;10.70;99.90
46676;DHT22;32412;51.478;5.694;2023-04-24T11:27:44;10.80;99.90
46676;DHT22;32412;51.478;5.694;2023-04-24T11:30:18;10.80;99.90
46676;DHT22;32412;51.478;5.694;2023-04-24T11:32:47;10.80;99.90
46676;DHT22;32412;51.478;5.694;2023-04-24T11:35:18;10.70;99.90
46676;DHT22;32412;51.478;5.694;2023-04-24T11:37:46;10.30;99.90
46676;DHT22;32412;51.478;5.694;2023-04-24T11:40:14;10.20;99.90
46676;DHT22;32412;51.478;5.694;2023-04-24T11:42:46;9.90;99.90
46676;DHT22;32412;51.478;5.694;2023-04-24T11:45:12;9.70;99.90
46676;DHT22;32412;51.478;5.694;2023-04-24T11:47:39;9.50;99.90
46676;DHT22;32412;51.478;5.694;2023-04-24T11:50:07;9.20;99.90
46676;DHT22;32412;51.478;5.694;2023-04-24T11:52:37;9.00;99.90
46676;DHT22;32412;51.478;5.694;2023-04-24T11:55:03;8.90;99.90
46676;DHT22;32412;51.478;5.694;2023-04-24T11:57:30;8.90;99.90
46676;DHT22;32412;51.478;5.694;2023-04-24T12:00:04;8.90;99.90
46676;DHT22;32412;51.478;5.694;2023-04-24T12:02:30;9.10;99.90
46676;DHT22;32412;51.478;5.694;2023-04-24T12:04:56;9.40;99.90
46676;DHT22;32412;51.478;5.694;2023-04-24T12:07:23;9.80;99.90
46676;DHT22;32412;51.478;5.694;2023-04-24T12:09:59;9.90;99.90
46676;DHT22;32412;51.478;5.694;2023-04-24T12:12:28;10.00;99.90
46676;DHT22;32412;51.478;5.694;2023-04-24T12:14:58;9.90;99.90
46676;DHT22;32412;51.478;5.694;2023-04-24T12:17:29;10.10;99.90
46676;DHT22;32412;51.478;5.694;2023-04-24T12:20:04;10.30;99.90
46676;DHT22;32412;51.478;5.694;2023-04-24T12:22:43;10.30;99.90
46676;DHT22;32412;51.478;5.694;2023-04-24T12:25:10;10.30;99.90
46676;DHT22;32412;51.478;5.694;2023-04-24T12:27:36;10.20;99.90
46676;DHT22;32412;51.478;5.694;2023-04-24T12:30:04;10.10;99.90
46676;DHT22;32412;51.478;5.694;2023-04-24T12:32:30;10.20;99.90
46676;DHT22;32412;51.478;5.694;2023-04-24T12:34:57;10.20;99.90
46676;DHT22;32412;51.478;5.694;2023-04-24T12:37:32;10.50;99.90
46676;DHT22;32412;51.478;5.694;2023-04-24T12:40:08;10.70;99.90
46676;DHT22;32412;51.478;5.694;2023-04-24T12:42:41;10.90;99.90
46676;DHT22;32412;51.478;5.694;2023-04-24T12:45:08;11.00;99.90
46676;DHT22;32412;51.478;5.694;2023-04-24T12:47:34;11.20;99.90
46676;DHT22;32412;51.478;5.694;2023-04-24T12:50:01;11.20;99.90
46676;DHT22;32412;51.478;5.694;2023-04-24T12:52:29;11.10;99.90
46676;DHT22;32412;51.478;5.694;2023-04-24T12:54:56;11.20;99.90
46676;DHT22;32412;51.478;5.694;2023-04-24T12:57:27;11.50;99.90
46676;DHT22;32412;51.478;5.694;2023-04-24T12:59:58;11.60;99.90
46676;DHT22;32412;51.478;5.694;2023-04-24T13:02:26;11.70;99.90
46676;DHT22;32412;51.478;5.694;2023-04-24T13:04:52;11.90;99.90
46676;DHT22;32412;51.478;5.694;2023-04-24T13:07:21;12.00;99.90
46676;DHT22;32412;51.478;5.694;2023-04-24T13:09:49;11.90;99.90
46676;DHT22;32412;51.478;5.694;2023-04-24T13:12:17;12.00;99.90
46676;DHT22;32412;51.478;5.694;2023-04-24T13:14:43;12.20;99.90
46676;DHT22;32412;51.478;5.694;2023-04-24T13:17:15;12.20;99.90
46676;DHT22;32412;51.478;5.694;2023-04-24T13:19:43;11.90;99.90
46676;DHT22;32412;51.478;5.694;2023-04-24T13:22:10;11.80;99.90
46676;DHT22;32412;51.478;5.694;2023-04-24T13:24:36;11.60;99.90
46676;DHT22;32412;51.478;5.694;2023-04-24T13:27:02;11.40;99.90
46676;DHT22;32412;51.478;5.694;2023-04-24T13:29:28;11.20;99.90
46676;DHT22;32412;51.478;5.694;2023-04-24T13:31:55;11.00;99.90
46676;DHT22;32412;51.478;5.694;2023-04-24T13:34:25;10.90;99.90
46676;DHT22;32412;51.478;5.694;2023-04-24T13:36:54;10.80;99.90
46676;DHT22;32412;51.478;5.694;2023-04-24T13:39:21;10.70;99.90
46676;DHT22;32412;51.478;5.694;2023-04-24T13:41:47;10.60;99.90
46676;DHT22;32412;51.478;5.694;2023-04-24T13:44:17;10.60;99.90
46676;DHT22;32412;51.478;5.694;2023-04-24T13:46:44;10.50;99.90
46676;DHT22;32412;51.478;5.694;2023-04-24T13:49:14;10.60;99.90
46676;DHT22;32412;51.478;5.694;2023-04-24T13:51:43;10.40;99.90
46676;DHT22;32412;51.478;5.694;2023-04-24T13:54:09;10.20;99.90
46676;DHT22;32412;51.478;5.694;2023-04-24T13:56:35;10.10;99.90
46676;DHT22;32412;51.478;5.694;2023-04-24T13:59:01;10.10;99.90
46676;DHT22;32412;51.478;5.694;2023-04-24T14:01:26;10.20;99.90
46676;DHT22;32412;51.478;5.694;2023-04-24T14:03:53;10.40;99.90
46676;DHT22;32412;51.478;5.694;2023-04-24T14:06:19;10.60;99.90
46676;DHT22;32412;51.478;5.694;2023-04-24T14:08:45;11.10;99.90
46676;DHT22;32412;51.478;5.694;2023-04-24T14:11:11;11.40;99.90
46676;DHT22;32412;51.478;5.694;2023-04-24T14:13:37;11.60;99.90
46676;DHT22;32412;51.478;5.694;2023-04-24T14:16:04;11.90;99.90
46676;DHT22;32412;51.478;5.694;2023-04-24T14:18:30;11.90;99.90
46676;DHT22;32412;51.478;5.694;2023-04-24T14:20:56;11.80;99.90
46676;DHT22;32412;51.478;5.694;2023-04-24T14:23:21;11.70;99.90
46676;DHT22;32412;51.478;5.694;2023-04-24T14:25:49;11.70;99.90
46676;DHT22;32412;51.478;5.694;2023-04-24T14:28:21;11.90;99.90
46676;DHT22;32412;51.478;5.694;2023-04-24T14:30:50;11.70;99.90
46676;DHT22;32412;51.478;5.694;2023-04-24T14:33:16;11.70;99.90
46676;DHT22;32412;51.478;5.694;2023-04-24T14:35:42;11.50;99.90
46676;DHT22;32412;51.478;5.694;2023-04-24T14:38:08;11.20;99.90
46676;DHT22;32412;51.478;5.694;2023-04-24T14:40:34;11.00;99.90
46676;DHT22;32412;51.478;5.694;2023-04-24T14:43:00;10.60;99.90
46676;DHT22;32412;51.478;5.694;2023-04-24T14:45:26;10.40;99.90
46676;DHT22;32412;51.478;5.694;2023-04-24T14:47:53;10.40;99.90
46676;DHT22;32412;51.478;5.694;2023-04-24T14:50:19;10.60;99.90
46676;DHT22;32412;51.478;5.694;2023-04-24T14:52:45;10.70;99.90
46676;DHT22;32412;51.478;5.694;2023-04-24T14:55:10;10.90;99.90
46676;DHT22;32412;51.478;5.694;2023-04-24T14:57:36;10.90;99.90
46676;DHT22;32412;51.478;5.694;2023-04-24T15:00:04;11.20;99.90
46676;DHT22;32412;51.478;5.694;2023-04-24T15:02:32;11.60;99.90
46676;DHT22;32412;51.478;5.694;2023-04-24T15:04:58;12.30;99.90
46676;DHT22;32412;51.478;5.694;2023-04-24T15:07:24;12.80;99.90
46676;DHT22;32412;51.478;5.694;2023-04-24T15:09:50;12.90;99.90
46676;DHT22;32412;51.478;5.694;2023-04-24T15:12:16;12.80;99.90
46676;DHT22;32412;51.478;5.694;2023-04-24T15:14:42;12.50;99.90
46676;DHT22;32412;51.478;5.694;2023-04-24T15:17:08;12.50;99.90
46676;DHT22;32412;51.478;5.694;2023-04-24T15:19:33;12.90;99.90
46676;DHT22;32412;51.478;5.694;2023-04-24T15:21:59;13.30;99.90
46676;DHT22;32412;51.478;5.694;2023-04-24T15:24:25;13.80;99.90
46676;DHT22;32412;51.478;5.694;2023-04-24T15:26:51;13.60;99.90
46676;DHT22;32412;51.478;5.694;2023-04-24T15:29:17;13.50;99.90
46676;DHT22;32412;51.478;5.694;2023-04-24T15:31:43;13.90;99.90
46676;DHT22;32412;51.478;5.694;2023-04-24T15:34:08;14.40;99.90
46676;DHT22;32412;51.478;5.694;2023-04-24T15:36:34;14.90;99.90
46676;DHT22;32412;51.478;5.694;2023-04-24T15:39:01;14.80;99.90
46676;DHT22;32412;51.478;5.694;2023-04-24T15:41:27;14.40;99.90
46676;DHT22;32412;51.478;5.694;2023-04-24T15:43:53;14.20;99.90
46676;DHT22;32412;51.478;5.694;2023-04-24T15:46:18;14.70;99.90
46676;DHT22;32412;51.478;5.694;2023-04-24T15:48:47;14.50;99.90
46676;DHT22;32412;51.478;5.694;2023-04-24T15:51:13;13.20;99.90
46676;DHT22;32412;51.478;5.694;2023-04-24T15:53:39;12.60;99.90
46676;DHT22;32412;51.478;5.694;2023-04-24T15:56:04;12.10;99.90
46676;DHT22;32412;51.478;5.694;2023-04-24T15:58:30;11.60;99.90